sensor_id;sensor_type;location;lat;lon;timestamp;P1;durP1;ratioP1;P2;durP2;ratioP2
40907;SDS011;51055;59.436;24.778;2023-07-31T00:00:53;4.32;;;2.10;;
40907;SDS011;51055;59.436;24.778;2023-07-31T00:03:20;5.00;;;2.33;;
40907;SDS011;51055;59.436;24.778;2023-07-31T00:05:48;5.55;;;2.15;;
40907;SDS011;51055;59.436;24.778;2023-07-31T00:08:16;4.50;;;2.33;;
40907;SDS011;51055;59.436;24.778;2023-07-31T00:10:43;4.72;;;2.50;;
40907;SDS011;51055;59.436;24.778;2023-07-31T00:13:10;3.97;;;2.20;;
40907;SDS011;51055;59.436;24.778;2023-07-31T00:15:39;3.88;;;2.05;;
40907;SDS011;51055;59.436;24.778;2023-07-31T00:18:06;4.65;;;2.15;;
40907;SDS011;51055;59.436;24.778;2023-07-31T00:20:33;4.43;;;2.30;;
40907;SDS011;51055;59.436;24.778;2023-07-31T00:23:01;4.32;;;2.22;;
40907;SDS011;51055;59.436;24.778;2023-07-31T00:25:28;4.68;;;2.45;;
40907;SDS011;51055;59.436;24.778;2023-07-31T00:27:55;4.03;;;2.10;;
40907;SDS011;51055;59.436;24.778;2023-07-31T00:30:23;3.60;;;1.70;;
40907;SDS011;51055;59.436;24.778;2023-07-31T00:32:52;4.03;;;2.00;;
40907;SDS011;51055;59.436;24.778;2023-07-31T00:35:19;3.65;;;1.88;;
40907;SDS011;51055;59.436;24.778;2023-07-31T00:37:46;4.00;;;1.95;;
40907;SDS011;51055;59.436;24.778;2023-07-31T00:40:13;3.78;;;2.08;;
40907;SDS011;51055;59.436;24.778;2023-07-31T00:42:41;4.35;;;2.10;;
40907;SDS011;51055;59.436;24.778;2023-07-31T00:45:08;4.55;;;2.25;;
40907;SDS011;51055;59.436;24.778;2023-07-31T00:47:35;3.75;;;2.15;;
40907;SDS011;51055;59.436;24.778;2023-07-31T00:50:03;4.13;;;2.03;;
40907;SDS011;51055;59.436;24.778;2023-07-31T00:52:30;3.92;;;2.40;;
40907;SDS011;51055;59.436;24.778;2023-07-31T00:54:57;4.38;;;2.00;;
40907;SDS011;51055;59.436;24.778;2023-07-31T00:57:24;3.47;;;1.70;;
40907;SDS011;51055;59.436;24.778;2023-07-31T00:59:52;3.60;;;1.92;;
40907;SDS011;51055;59.436;24.778;2023-07-31T01:02:19;3.47;;;1.85;;
40907;SDS011;51055;59.436;24.778;2023-07-31T01:04:46;3.47;;;1.90;;
40907;SDS011;51055;59.436;24.778;2023-07-31T01:07:20;4.03;;;1.90;;
40907;SDS011;51055;59.436;24.778;2023-07-31T01:10:11;3.25;;;1.80;;
40907;SDS011;51055;59.436;24.778;2023-07-31T01:12:38;4.40;;;2.17;;
40907;SDS011;51055;59.436;24.778;2023-07-31T01:15:05;4.60;;;1.90;;
40907;SDS011;51055;59.436;24.778;2023-07-31T01:17:33;4.13;;;1.80;;
40907;SDS011;51055;59.436;24.778;2023-07-31T01:20:02;3.42;;;1.70;;
40907;SDS011;51055;59.436;24.778;2023-07-31T01:22:35;5.07;;;2.00;;
40907;SDS011;51055;59.436;24.778;2023-07-31T01:27:59;5.20;;;1.80;;
40907;SDS011;51055;59.436;24.778;2023-07-31T01:30:28;4.40;;;2.25;;
40907;SDS011;51055;59.436;24.778;2023-07-31T01:32:56;5.30;;;2.00;;
40907;SDS011;51055;59.436;24.778;2023-07-31T01:35:25;5.47;;;2.53;;
40907;SDS011;51055;59.436;24.778;2023-07-31T01:37:52;3.50;;;1.70;;
40907;SDS011;51055;59.436;24.778;2023-07-31T01:40:21;4.50;;;2.17;;
40907;SDS011;51055;59.436;24.778;2023-07-31T01:42:48;3.03;;;1.70;;
40907;SDS011;51055;59.436;24.778;2023-07-31T01:45:15;4.95;;;2.20;;
40907;SDS011;51055;59.436;24.778;2023-07-31T01:47:42;4.72;;;1.95;;
40907;SDS011;51055;59.436;24.778;2023-07-31T01:50:10;4.38;;;2.10;;
40907;SDS011;51055;59.436;24.778;2023-07-31T01:52:37;3.55;;;1.70;;
40907;SDS011;51055;59.436;24.778;2023-07-31T01:55:04;3.50;;;1.88;;
40907;SDS011;51055;59.436;24.778;2023-07-31T01:57:31;4.65;;;2.08;;
40907;SDS011;51055;59.436;24.778;2023-07-31T01:59:59;3.97;;;2.17;;
40907;SDS011;51055;59.436;24.778;2023-07-31T02:02:26;4.50;;;1.98;;
40907;SDS011;51055;59.436;24.778;2023-07-31T02:04:54;4.18;;;2.00;;
40907;SDS011;51055;59.436;24.778;2023-07-31T02:07:21;3.75;;;1.80;;
40907;SDS011;51055;59.436;24.778;2023-07-31T02:09:48;4.45;;;2.10;;
40907;SDS011;51055;59.436;24.778;2023-07-31T02:12:16;4.07;;;2.40;;
40907;SDS011;51055;59.436;24.778;2023-07-31T02:14:43;3.90;;;1.90;;
40907;SDS011;51055;59.436;24.778;2023-07-31T02:17:11;3.35;;;1.83;;
40907;SDS011;51055;59.436;24.778;2023-07-31T02:19:38;3.92;;;1.98;;
40907;SDS011;51055;59.436;24.778;2023-07-31T02:22:05;3.30;;;1.88;;
40907;SDS011;51055;59.436;24.778;2023-07-31T02:24:32;4.10;;;1.80;;
40907;SDS011;51055;59.436;24.778;2023-07-31T02:26:59;4.82;;;2.15;;
40907;SDS011;51055;59.436;24.778;2023-07-31T02:29:27;4.82;;;2.05;;
40907;SDS011;51055;59.436;24.778;2023-07-31T02:31:54;3.83;;;2.10;;
40907;SDS011;51055;59.436;24.778;2023-07-31T02:34:22;4.50;;;1.83;;
40907;SDS011;51055;59.436;24.778;2023-07-31T02:36:49;4.53;;;1.90;;
40907;SDS011;51055;59.436;24.778;2023-07-31T02:39:16;5.13;;;2.47;;
40907;SDS011;51055;59.436;24.778;2023-07-31T02:41:43;4.30;;;1.95;;
40907;SDS011;51055;59.436;24.778;2023-07-31T02:44:11;5.25;;;2.00;;
40907;SDS011;51055;59.436;24.778;2023-07-31T02:46:41;3.63;;;1.83;;
40907;SDS011;51055;59.436;24.778;2023-07-31T02:49:08;5.03;;;2.08;;
40907;SDS011;51055;59.436;24.778;2023-07-31T02:51:36;3.88;;;1.90;;
40907;SDS011;51055;59.436;24.778;2023-07-31T02:54:03;4.38;;;1.98;;
40907;SDS011;51055;59.436;24.778;2023-07-31T02:56:30;4.00;;;2.00;;
40907;SDS011;51055;59.436;24.778;2023-07-31T02:58:57;4.63;;;1.80;;
40907;SDS011;51055;59.436;24.778;2023-07-31T03:01:24;4.35;;;1.90;;
40907;SDS011;51055;59.436;24.778;2023-07-31T03:03:52;4.68;;;2.10;;
40907;SDS011;51055;59.436;24.778;2023-07-31T03:06:20;4.75;;;1.80;;
40907;SDS011;51055;59.436;24.778;2023-07-31T03:08:47;4.45;;;2.10;;
40907;SDS011;51055;59.436;24.778;2023-07-31T03:11:14;5.60;;;2.17;;
40907;SDS011;51055;59.436;24.778;2023-07-31T03:13:42;4.20;;;2.08;;
40907;SDS011;51055;59.436;24.778;2023-07-31T03:16:09;3.58;;;1.83;;
40907;SDS011;51055;59.436;24.778;2023-07-31T03:18:36;5.03;;;2.40;;
40907;SDS011;51055;59.436;24.778;2023-07-31T03:21:04;4.38;;;2.33;;
40907;SDS011;51055;59.436;24.778;2023-07-31T03:23:31;4.05;;;2.20;;
40907;SDS011;51055;59.436;24.778;2023-07-31T03:26:02;4.90;;;1.88;;
40907;SDS011;51055;59.436;24.778;2023-07-31T03:28:32;3.92;;;2.20;;
40907;SDS011;51055;59.436;24.778;2023-07-31T03:30:59;5.13;;;2.42;;
40907;SDS011;51055;59.436;24.778;2023-07-31T03:33:27;3.80;;;2.30;;
40907;SDS011;51055;59.436;24.778;2023-07-31T03:35:55;4.05;;;2.20;;
40907;SDS011;51055;59.436;24.778;2023-07-31T03:38:22;3.78;;;1.92;;
40907;SDS011;51055;59.436;24.778;2023-07-31T03:40:49;3.58;;;2.03;;
40907;SDS011;51055;59.436;24.778;2023-07-31T03:43:17;5.72;;;2.40;;
40907;SDS011;51055;59.436;24.778;2023-07-31T03:45:44;4.57;;;2.17;;
40907;SDS011;51055;59.436;24.778;2023-07-31T03:48:12;3.85;;;2.08;;
40907;SDS011;51055;59.436;24.778;2023-07-31T03:50:39;3.85;;;1.90;;
40907;SDS011;51055;59.436;24.778;2023-07-31T03:53:06;5.97;;;2.10;;
40907;SDS011;51055;59.436;24.778;2023-07-31T03:55:33;3.53;;;1.90;;
40907;SDS011;51055;59.436;24.778;2023-07-31T03:58:01;4.13;;;1.88;;
40907;SDS011;51055;59.436;24.778;2023-07-31T04:00:28;3.92;;;1.90;;
40907;SDS011;51055;59.436;24.778;2023-07-31T04:02:55;4.20;;;1.77;;
40907;SDS011;51055;59.436;24.778;2023-07-31T04:05:22;4.15;;;2.00;;
40907;SDS011;51055;59.436;24.778;2023-07-31T04:07:50;4.28;;;2.03;;
40907;SDS011;51055;59.436;24.778;2023-07-31T04:10:17;3.67;;;1.90;;
40907;SDS011;51055;59.436;24.778;2023-07-31T04:12:45;4.28;;;1.88;;
40907;SDS011;51055;59.436;24.778;2023-07-31T04:15:12;9.15;;;4.70;;
40907;SDS011;51055;59.436;24.778;2023-07-31T04:17:39;5.10;;;3.13;;
40907;SDS011;51055;59.436;24.778;2023-07-31T04:20:07;5.30;;;2.00;;
40907;SDS011;51055;59.436;24.778;2023-07-31T04:22:34;3.50;;;2.00;;
40907;SDS011;51055;59.436;24.778;2023-07-31T04:25:02;5.20;;;2.10;;
40907;SDS011;51055;59.436;24.778;2023-07-31T04:27:29;3.78;;;1.98;;
40907;SDS011;51055;59.436;24.778;2023-07-31T04:29:56;6.25;;;2.25;;
40907;SDS011;51055;59.436;24.778;2023-07-31T04:32:23;3.83;;;2.13;;
40907;SDS011;51055;59.436;24.778;2023-07-31T04:34:51;4.97;;;2.20;;
40907;SDS011;51055;59.436;24.778;2023-07-31T04:37:18;4.57;;;2.13;;
40907;SDS011;51055;59.436;24.778;2023-07-31T04:39:45;6.45;;;1.90;;
40907;SDS011;51055;59.436;24.778;2023-07-31T04:42:12;3.80;;;1.75;;
40907;SDS011;51055;59.436;24.778;2023-07-31T04:44:40;3.78;;;2.05;;
40907;SDS011;51055;59.436;24.778;2023-07-31T04:47:07;4.35;;;2.10;;
40907;SDS011;51055;59.436;24.778;2023-07-31T04:49:35;5.75;;;2.15;;
40907;SDS011;51055;59.436;24.778;2023-07-31T04:52:02;5.05;;;2.33;;
40907;SDS011;51055;59.436;24.778;2023-07-31T04:54:30;4.10;;;1.83;;
40907;SDS011;51055;59.436;24.778;2023-07-31T04:56:57;6.97;;;2.50;;
40907;SDS011;51055;59.436;24.778;2023-07-31T04:59:24;5.00;;;2.20;;
40907;SDS011;51055;59.436;24.778;2023-07-31T05:01:51;4.05;;;2.25;;
40907;SDS011;51055;59.436;24.778;2023-07-31T05:04:19;4.85;;;2.20;;
40907;SDS011;51055;59.436;24.778;2023-07-31T05:06:46;4.00;;;2.10;;
40907;SDS011;51055;59.436;24.778;2023-07-31T05:09:13;4.00;;;1.77;;
40907;SDS011;51055;59.436;24.778;2023-07-31T05:11:41;3.70;;;1.77;;
40907;SDS011;51055;59.436;24.778;2023-07-31T05:16:37;5.95;;;2.42;;
40907;SDS011;51055;59.436;24.778;2023-07-31T05:19:05;4.85;;;2.40;;
40907;SDS011;51055;59.436;24.778;2023-07-31T05:21:32;5.28;;;2.10;;
40907;SDS011;51055;59.436;24.778;2023-07-31T05:24:00;5.10;;;2.10;;
40907;SDS011;51055;59.436;24.778;2023-07-31T05:26:27;4.22;;;2.00;;
40907;SDS011;51055;59.436;24.778;2023-07-31T05:28:55;4.97;;;2.15;;
40907;SDS011;51055;59.436;24.778;2023-07-31T05:31:22;4.45;;;2.00;;
40907;SDS011;51055;59.436;24.778;2023-07-31T05:33:51;5.10;;;2.10;;
40907;SDS011;51055;59.436;24.778;2023-07-31T05:36:18;4.18;;;1.90;;
40907;SDS011;51055;59.436;24.778;2023-07-31T05:38:45;3.95;;;1.85;;
40907;SDS011;51055;59.436;24.778;2023-07-31T05:41:12;3.70;;;1.90;;
40907;SDS011;51055;59.436;24.778;2023-07-31T05:43:40;5.50;;;2.10;;
40907;SDS011;51055;59.436;24.778;2023-07-31T05:46:07;3.78;;;1.70;;
40907;SDS011;51055;59.436;24.778;2023-07-31T05:48:36;3.88;;;1.73;;
40907;SDS011;51055;59.436;24.778;2023-07-31T05:51:03;3.50;;;1.77;;
40907;SDS011;51055;59.436;24.778;2023-07-31T05:53:30;4.38;;;1.92;;
40907;SDS011;51055;59.436;24.778;2023-07-31T05:55:57;3.58;;;1.92;;
40907;SDS011;51055;59.436;24.778;2023-07-31T05:58:25;3.47;;;1.80;;
40907;SDS011;51055;59.436;24.778;2023-07-31T06:00:52;3.78;;;1.80;;
40907;SDS011;51055;59.436;24.778;2023-07-31T06:03:21;3.42;;;1.80;;
40907;SDS011;51055;59.436;24.778;2023-07-31T06:05:48;4.63;;;2.20;;
40907;SDS011;51055;59.436;24.778;2023-07-31T06:08:16;3.40;;;1.85;;
40907;SDS011;51055;59.436;24.778;2023-07-31T06:10:43;5.28;;;2.38;;
40907;SDS011;51055;59.436;24.778;2023-07-31T06:13:10;4.60;;;2.28;;
40907;SDS011;51055;59.436;24.778;2023-07-31T06:15:37;5.55;;;2.38;;
40907;SDS011;51055;59.436;24.778;2023-07-31T06:18:05;4.93;;;2.30;;
40907;SDS011;51055;59.436;24.778;2023-07-31T06:20:35;5.18;;;2.40;;
40907;SDS011;51055;59.436;24.778;2023-07-31T06:23:02;4.72;;;2.10;;
40907;SDS011;51055;59.436;24.778;2023-07-31T06:25:30;6.97;;;2.33;;
40907;SDS011;51055;59.436;24.778;2023-07-31T06:27:57;5.20;;;2.13;;
40907;SDS011;51055;59.436;24.778;2023-07-31T06:30:25;4.80;;;1.80;;
40907;SDS011;51055;59.436;24.778;2023-07-31T06:32:52;5.50;;;1.90;;
40907;SDS011;51055;59.436;24.778;2023-07-31T06:35:20;9.13;;;2.30;;
40907;SDS011;51055;59.436;24.778;2023-07-31T06:37:47;4.00;;;1.90;;
40907;SDS011;51055;59.436;24.778;2023-07-31T06:40:14;3.53;;;1.90;;
40907;SDS011;51055;59.436;24.778;2023-07-31T06:42:41;4.60;;;1.73;;
40907;SDS011;51055;59.436;24.778;2023-07-31T06:45:09;5.60;;;2.00;;
40907;SDS011;51055;59.436;24.778;2023-07-31T06:47:36;4.80;;;1.67;;
40907;SDS011;51055;59.436;24.778;2023-07-31T06:50:04;2.95;;;1.60;;
40907;SDS011;51055;59.436;24.778;2023-07-31T06:52:32;3.58;;;1.70;;
40907;SDS011;51055;59.436;24.778;2023-07-31T06:55:00;3.80;;;1.50;;
40907;SDS011;51055;59.436;24.778;2023-07-31T06:57:28;5.15;;;1.90;;
40907;SDS011;51055;59.436;24.778;2023-07-31T06:59:55;4.35;;;1.80;;
40907;SDS011;51055;59.436;24.778;2023-07-31T07:02:22;4.07;;;1.70;;
40907;SDS011;51055;59.436;24.778;2023-07-31T07:04:50;4.13;;;2.05;;
40907;SDS011;51055;59.436;24.778;2023-07-31T07:07:18;3.78;;;1.77;;
40907;SDS011;51055;59.436;24.778;2023-07-31T07:09:45;4.88;;;1.58;;
40907;SDS011;51055;59.436;24.778;2023-07-31T07:12:13;4.43;;;1.50;;
40907;SDS011;51055;59.436;24.778;2023-07-31T07:14:40;2.97;;;1.40;;
40907;SDS011;51055;59.436;24.778;2023-07-31T07:17:07;5.85;;;1.50;;
40907;SDS011;51055;59.436;24.778;2023-07-31T07:19:35;3.60;;;1.60;;
40907;SDS011;51055;59.436;24.778;2023-07-31T07:22:02;4.47;;;1.70;;
40907;SDS011;51055;59.436;24.778;2023-07-31T07:24:30;3.20;;;1.52;;
40907;SDS011;51055;59.436;24.778;2023-07-31T07:26:57;5.55;;;1.73;;
40907;SDS011;51055;59.436;24.778;2023-07-31T07:29:24;8.15;;;2.13;;
40907;SDS011;51055;59.436;24.778;2023-07-31T07:31:52;4.88;;;1.63;;
40907;SDS011;51055;59.436;24.778;2023-07-31T07:34:19;4.15;;;1.60;;
40907;SDS011;51055;59.436;24.778;2023-07-31T07:36:47;3.85;;;1.63;;
40907;SDS011;51055;59.436;24.778;2023-07-31T07:39:14;6.57;;;1.92;;
40907;SDS011;51055;59.436;24.778;2023-07-31T07:41:41;4.70;;;1.70;;
40907;SDS011;51055;59.436;24.778;2023-07-31T07:44:08;2.75;;;1.48;;
40907;SDS011;51055;59.436;24.778;2023-07-31T07:46:36;2.33;;;1.38;;
40907;SDS011;51055;59.436;24.778;2023-07-31T07:49:04;4.68;;;1.35;;
40907;SDS011;51055;59.436;24.778;2023-07-31T07:51:31;3.03;;;1.40;;
40907;SDS011;51055;59.436;24.778;2023-07-31T07:53:59;3.45;;;1.58;;
40907;SDS011;51055;59.436;24.778;2023-07-31T07:56:26;4.25;;;1.40;;
40907;SDS011;51055;59.436;24.778;2023-07-31T07:58:54;3.40;;;1.35;;
40907;SDS011;51055;59.436;24.778;2023-07-31T08:01:21;2.45;;;1.20;;
40907;SDS011;51055;59.436;24.778;2023-07-31T08:03:49;2.67;;;1.50;;
40907;SDS011;51055;59.436;24.778;2023-07-31T08:06:17;3.53;;;1.50;;
40907;SDS011;51055;59.436;24.778;2023-07-31T08:08:44;2.28;;;1.30;;
40907;SDS011;51055;59.436;24.778;2023-07-31T08:11:11;3.22;;;1.30;;
40907;SDS011;51055;59.436;24.778;2023-07-31T08:13:38;3.15;;;1.42;;
40907;SDS011;51055;59.436;24.778;2023-07-31T08:16:06;2.28;;;1.27;;
40907;SDS011;51055;59.436;24.778;2023-07-31T08:18:33;4.15;;;1.63;;
40907;SDS011;51055;59.436;24.778;2023-07-31T08:21:02;4.50;;;1.45;;
40907;SDS011;51055;59.436;24.778;2023-07-31T08:23:30;8.10;;;1.80;;
40907;SDS011;51055;59.436;24.778;2023-07-31T08:25:58;3.33;;;1.55;;
40907;SDS011;51055;59.436;24.778;2023-07-31T08:28:25;4.63;;;2.10;;
40907;SDS011;51055;59.436;24.778;2023-07-31T08:30:52;4.10;;;1.50;;
40907;SDS011;51055;59.436;24.778;2023-07-31T08:33:19;4.28;;;1.50;;
40907;SDS011;51055;59.436;24.778;2023-07-31T08:35:47;5.22;;;1.90;;
40907;SDS011;51055;59.436;24.778;2023-07-31T08:38:15;2.80;;;1.42;;
40907;SDS011;51055;59.436;24.778;2023-07-31T08:40:42;5.15;;;1.70;;
40907;SDS011;51055;59.436;24.778;2023-07-31T08:43:09;3.50;;;1.60;;
40907;SDS011;51055;59.436;24.778;2023-07-31T08:45:37;3.78;;;1.63;;
40907;SDS011;51055;59.436;24.778;2023-07-31T08:48:05;3.40;;;1.52;;
40907;SDS011;51055;59.436;24.778;2023-07-31T08:50:33;2.83;;;1.60;;
40907;SDS011;51055;59.436;24.778;2023-07-31T08:53:01;3.20;;;1.60;;
40907;SDS011;51055;59.436;24.778;2023-07-31T08:55:28;4.50;;;1.70;;
40907;SDS011;51055;59.436;24.778;2023-07-31T08:57:56;3.15;;;1.60;;
40907;SDS011;51055;59.436;24.778;2023-07-31T09:00:24;3.47;;;1.77;;
40907;SDS011;51055;59.436;24.778;2023-07-31T09:03:02;4.07;;;1.98;;
40907;SDS011;51055;59.436;24.778;2023-07-31T09:05:30;3.30;;;1.60;;
40907;SDS011;51055;59.436;24.778;2023-07-31T09:07:58;2.63;;;1.50;;
40907;SDS011;51055;59.436;24.778;2023-07-31T09:10:25;4.10;;;1.88;;
40907;SDS011;51055;59.436;24.778;2023-07-31T09:12:52;3.58;;;1.60;;
40907;SDS011;51055;59.436;24.778;2023-07-31T09:15:19;2.85;;;1.65;;
40907;SDS011;51055;59.436;24.778;2023-07-31T09:18:05;3.65;;;1.58;;
40907;SDS011;51055;59.436;24.778;2023-07-31T09:20:33;5.70;;;1.75;;
40907;SDS011;51055;59.436;24.778;2023-07-31T09:25:35;3.95;;;2.00;;
40907;SDS011;51055;59.436;24.778;2023-07-31T09:28:06;3.70;;;1.60;;
40907;SDS011;51055;59.436;24.778;2023-07-31T09:33:13;2.60;;;1.55;;
40907;SDS011;51055;59.436;24.778;2023-07-31T09:35:41;4.37;;;1.70;;
40907;SDS011;51055;59.436;24.778;2023-07-31T09:38:09;2.90;;;1.48;;
40907;SDS011;51055;59.436;24.778;2023-07-31T09:40:39;2.25;;;1.50;;
40907;SDS011;51055;59.436;24.778;2023-07-31T09:43:08;3.10;;;1.40;;
40907;SDS011;51055;59.436;24.778;2023-07-31T09:45:38;2.72;;;1.35;;
40907;SDS011;51055;59.436;24.778;2023-07-31T09:48:12;2.35;;;1.27;;
40907;SDS011;51055;59.436;24.778;2023-07-31T09:50:40;2.53;;;1.20;;
40907;SDS011;51055;59.436;24.778;2023-07-31T09:53:08;3.00;;;1.55;;
40907;SDS011;51055;59.436;24.778;2023-07-31T09:55:36;3.75;;;1.50;;
40907;SDS011;51055;59.436;24.778;2023-07-31T09:58:06;4.32;;;1.38;;
40907;SDS011;51055;59.436;24.778;2023-07-31T10:00:34;3.45;;;1.45;;
40907;SDS011;51055;59.436;24.778;2023-07-31T10:03:03;2.72;;;1.60;;
40907;SDS011;51055;59.436;24.778;2023-07-31T10:05:34;2.80;;;1.20;;
40907;SDS011;51055;59.436;24.778;2023-07-31T10:08:01;2.92;;;1.42;;
40907;SDS011;51055;59.436;24.778;2023-07-31T10:10:29;2.92;;;1.42;;
40907;SDS011;51055;59.436;24.778;2023-07-31T10:12:56;3.67;;;1.50;;
40907;SDS011;51055;59.436;24.778;2023-07-31T10:15:25;2.63;;;1.48;;
40907;SDS011;51055;59.436;24.778;2023-07-31T10:17:53;2.60;;;1.42;;
40907;SDS011;51055;59.436;24.778;2023-07-31T10:20:22;3.00;;;1.50;;
40907;SDS011;51055;59.436;24.778;2023-07-31T10:22:49;3.35;;;1.58;;
40907;SDS011;51055;59.436;24.778;2023-07-31T10:25:17;3.63;;;1.70;;
40907;SDS011;51055;59.436;24.778;2023-07-31T10:27:45;3.40;;;1.50;;
40907;SDS011;51055;59.436;24.778;2023-07-31T10:30:15;2.90;;;1.55;;
40907;SDS011;51055;59.436;24.778;2023-07-31T10:32:46;3.17;;;1.52;;
40907;SDS011;51055;59.436;24.778;2023-07-31T10:35:16;3.60;;;1.65;;
40907;SDS011;51055;59.436;24.778;2023-07-31T10:37:43;3.00;;;1.65;;
40907;SDS011;51055;59.436;24.778;2023-07-31T10:40:11;3.40;;;1.83;;
40907;SDS011;51055;59.436;24.778;2023-07-31T10:45:09;5.50;;;1.70;;
40907;SDS011;51055;59.436;24.778;2023-07-31T10:47:37;3.40;;;1.70;;
40907;SDS011;51055;59.436;24.778;2023-07-31T10:50:16;3.42;;;1.75;;
40907;SDS011;51055;59.436;24.778;2023-07-31T10:52:48;3.95;;;1.80;;
40907;SDS011;51055;59.436;24.778;2023-07-31T10:55:24;3.05;;;1.70;;
40907;SDS011;51055;59.436;24.778;2023-07-31T10:57:53;2.72;;;1.60;;
40907;SDS011;51055;59.436;24.778;2023-07-31T11:00:24;3.00;;;1.58;;
40907;SDS011;51055;59.436;24.778;2023-07-31T11:03:09;4.07;;;1.55;;
40907;SDS011;51055;59.436;24.778;2023-07-31T11:05:43;3.20;;;1.60;;
40907;SDS011;51055;59.436;24.778;2023-07-31T11:08:12;4.82;;;2.30;;
40907;SDS011;51055;59.436;24.778;2023-07-31T11:10:39;4.05;;;2.00;;
40907;SDS011;51055;59.436;24.778;2023-07-31T11:13:06;4.07;;;1.80;;
40907;SDS011;51055;59.436;24.778;2023-07-31T11:15:33;4.25;;;1.95;;
40907;SDS011;51055;59.436;24.778;2023-07-31T11:18:01;3.20;;;1.60;;
40907;SDS011;51055;59.436;24.778;2023-07-31T11:20:33;4.13;;;2.08;;
40907;SDS011;51055;59.436;24.778;2023-07-31T11:23:04;3.87;;;2.27;;
40907;SDS011;51055;59.436;24.778;2023-07-31T11:25:32;3.75;;;1.88;;
40907;SDS011;51055;59.436;24.778;2023-07-31T11:28:10;4.37;;;2.00;;
40907;SDS011;51055;59.436;24.778;2023-07-31T11:30:39;4.40;;;2.00;;
40907;SDS011;51055;59.436;24.778;2023-07-31T11:33:08;4.25;;;2.13;;
40907;SDS011;51055;59.436;24.778;2023-07-31T11:35:36;4.85;;;2.25;;
40907;SDS011;51055;59.436;24.778;2023-07-31T11:38:08;3.58;;;2.08;;
40907;SDS011;51055;59.436;24.778;2023-07-31T11:40:42;4.63;;;2.10;;
40907;SDS011;51055;59.436;24.778;2023-07-31T11:43:10;3.53;;;1.88;;
40907;SDS011;51055;59.436;24.778;2023-07-31T11:45:46;4.43;;;1.85;;
40907;SDS011;51055;59.436;24.778;2023-07-31T11:50:51;3.78;;;2.00;;
40907;SDS011;51055;59.436;24.778;2023-07-31T11:53:23;4.80;;;2.13;;
40907;SDS011;51055;59.436;24.778;2023-07-31T11:55:52;5.25;;;2.10;;
40907;SDS011;51055;59.436;24.778;2023-07-31T11:58:20;5.47;;;2.10;;
40907;SDS011;51055;59.436;24.778;2023-07-31T12:00:47;5.45;;;2.47;;
40907;SDS011;51055;59.436;24.778;2023-07-31T12:03:15;5.82;;;2.33;;
40907;SDS011;51055;59.436;24.778;2023-07-31T12:05:43;3.45;;;2.13;;
40907;SDS011;51055;59.436;24.778;2023-07-31T12:08:11;4.93;;;2.30;;
40907;SDS011;51055;59.436;24.778;2023-07-31T12:10:41;4.20;;;2.10;;
40907;SDS011;51055;59.436;24.778;2023-07-31T12:13:09;4.00;;;2.28;;
40907;SDS011;51055;59.436;24.778;2023-07-31T12:15:43;4.57;;;2.30;;
40907;SDS011;51055;59.436;24.778;2023-07-31T12:18:14;4.40;;;2.47;;
40907;SDS011;51055;59.436;24.778;2023-07-31T12:20:45;3.88;;;2.38;;
40907;SDS011;51055;59.436;24.778;2023-07-31T12:23:22;4.32;;;2.20;;
40907;SDS011;51055;59.436;24.778;2023-07-31T12:26:11;4.10;;;2.13;;
40907;SDS011;51055;59.436;24.778;2023-07-31T12:28:42;4.55;;;2.55;;
40907;SDS011;51055;59.436;24.778;2023-07-31T12:31:11;4.40;;;2.22;;
40907;SDS011;51055;59.436;24.778;2023-07-31T12:33:39;5.45;;;2.63;;
